Time;durP1;ratioP1;P1;durP2;ratioP2;P2;SDS_P1;SDS_P2;PMS_P1;PMS_P2;Temp;Humidity;BMP_temperature;BMP_pressure;BME280_temperature;BME280_humidity;BME280_pressure;Samples;Min_cycle;Max_cycle;Signal;HPM_P1;HPM_P2
2021/04/18 12:59:07;;;;;;;14.57;7.88;;;;;;;;;;5096340;27;20324;-76
2021/04/18 13:01:33;;;;;;;12.43;7.30;;;;;;;;;;5087822;28;20028;-76
2021/04/18 13:03:59;;;;;;;12.20;6.72;;;;;;;;;;5087253;28;20081;-76
2021/04/18 13:06:25;;;;;;;11.43;7.30;;;;;;;;;;5088299;28;20036;-75
2021/04/18 13:08:51;;;;;;;15.82;8.20;;;;;;;;;;5088374;28;20024;-76
2021/04/18 13:11:17;;;;;;;12.52;8.10;;;;;;;;;;5087836;28;20039;-76
2021/04/18 13:13:43;;;;;;;9.95;7.10;;;;;;;;;;5088041;28;20029;-76
2021/04/18 13:16:09;;;;;;;12.02;8.02;;;;;;;;;;5086714;28;20050;-76
2021/04/18 13:18:36;;;;;;;13.93;8.65;;;;;;;;;;5087948;28;20119;-75
2021/04/18 13:21:02;;;;;;;11.10;7.28;;;;;;;;;;5087599;28;20020;-76
2021/04/18 13:23:28;;;;;;;14.27;8.65;;;;;;;;;;5088213;28;20104;-75
2021/04/18 13:25:55;;;;;;;15.95;9.93;;;;;;;;;;5088303;28;20020;-75
2021/04/18 13:28:22;;;;;;;14.48;8.43;;;;;;;;;;5088311;28;20029;-76
2021/04/18 13:30:47;;;;;;;13.10;8.30;;;;;;;;;;5086757;28;20073;-76
2021/04/18 13:33:13;;;;;;;12.20;7.93;;;;;;;;;;5087840;28;20040;-76
2021/04/18 13:35:40;;;;;;;13.25;7.82;;;;;;;;;;5084031;28;20035;-75
2021/04/18 13:38:07;;;;;;;13.45;8.70;;;;;;;;;;5086587;28;20392;-76
2021/04/18 13:40:36;;;;;;;13.40;8.75;;;;;;;;;;5085796;28;20521;-75
2021/04/18 13:43:04;;;;;;;12.10;7.50;;;;;;;;;;5086379;28;20037;-76
2021/04/18 13:45:30;;;;;;;12.02;7.10;;;;;;;;;;5087491;28;20039;-76
2021/04/18 13:47:56;;;;;;;15.63;8.75;;;;;;;;;;5086902;28;20099;-76
2021/04/18 13:50:22;;;;;;;11.80;7.55;;;;;;;;;;5086826;28;20496;-76
2021/04/18 13:52:48;;;;;;;12.20;7.32;;;;;;;;;;5087239;28;20590;-76
2021/04/18 13:55:15;;;;;;;12.73;7.68;;;;;;;;;;5087558;28;20107;-76
2021/04/18 13:57:41;;;;;;;17.95;10.82;;;;;;;;;;5087124;28;20086;-76
2021/04/18 14:00:08;;;;;;;14.50;8.15;;;;;;;;;;5085580;28;20036;-75
2021/04/18 14:02:35;;;;;;;12.18;8.45;;;;;;;;;;5087101;28;20086;-76
2021/04/18 14:05:01;;;;;;;12.27;8.45;;;;;;;;;;5085710;28;20028;-74
2021/04/18 14:07:27;;;;;;;11.73;7.80;;;;;;;;;;5065526;28;20448;-76
2021/04/18 14:09:53;;;;;;;13.50;8.60;;;;;;;;;;5072163;28;20103;-75
2021/04/18 14:12:19;;;;;;;12.63;8.05;;;;;;;;;;5073630;28;20552;-76
2021/04/18 14:14:45;;;;;;;11.57;7.85;;;;;;;;;;5072703;28;20117;-76
2021/04/18 14:17:11;;;;;;;10.70;7.63;;;;;;;;;;5073610;28;20119;-77
2021/04/18 14:19:37;;;;;;;13.32;8.15;;;;;;;;;;5072905;28;20443;-77
2021/04/18 14:22:04;;;;;;;11.57;7.63;;;15.50;95.20;;;;;;5073717;28;20074;-75
2021/04/18 14:24:30;;;;;;;11.20;6.93;;;19.30;77.70;;;;;;5073275;28;20056;-74
2021/04/18 14:26:56;;;;;;;10.30;7.55;;;19.30;76.60;;;;;;5072128;28;20056;-75
2021/04/18 14:29:21;;;;;;;12.73;8.35;;;19.10;76.30;;;;;;5073336;28;20017;-74
2021/04/18 14:31:47;;;;;;;12.90;7.95;;;18.90;75.70;;;;;;5072458;28;20025;-75
2021/04/18 14:34:13;;;;;;;16.33;8.98;;;18.30;78.00;;;;;;5073333;28;20399;-75
2021/04/18 14:36:40;;;;;;;12.02;8.20;;;18.40;78.00;;;;;;5073143;28;20512;-75
2021/04/18 14:39:08;;;;;;;14.18;7.30;;;18.30;76.90;;;;;;5072157;28;20029;-75
2021/04/18 14:41:34;;;;;;;12.38;7.80;;;18.00;77.70;;;;;;5072466;28;20028;-75
2021/04/18 14:44:01;;;;;;;11.48;7.78;;;18.30;78.70;;;;;;5071342;28;20055;-74
2021/04/18 14:46:33;;;;;;;13.05;8.77;;;18.40;77.10;;;;;;5072134;28;20016;-73
2021/04/18 14:49:01;;;;;;;14.73;8.77;;;18.30;77.80;;;;;;5072678;28;20480;-74
2021/04/18 14:51:26;;;;;;;11.88;7.80;;;19.10;78.20;;;;;;5072214;28;20055;-74
2021/04/18 14:53:52;;;;;;;12.93;9.02;;;19.90;74.40;;;;;;5072853;28;20544;-75
2021/04/18 14:56:18;;;;;;;11.40;7.90;;;21.00;73.40;;;;;;5072966;28;20374;-75
2021/04/18 14:58:43;;;;;;;17.92;9.68;;;21.40;71.20;;;;;;5071899;28;20035;-75
2021/04/18 15:01:09;;;;;;;13.55;8.07;;;21.80;66.80;;;;;;5071457;28;20100;-74
2021/04/18 15:03:35;;;;;;;13.65;8.32;;;21.60;67.40;;;;;;5072314;28;20412;-75
2021/04/18 15:06:01;;;;;;;12.93;8.48;;;20.80;67.00;;;;;;5071862;28;20086;-74
2021/04/18 15:08:29;;;;;;;13.35;8.40;;;19.80;70.40;;;;;;5069339;28;20033;-75
2021/04/18 15:10:55;;;;;;;15.25;9.25;;;19.40;70.20;;;;;;5071095;28;20068;-74
2021/04/18 15:13:20;;;;;;;14.55;9.15;;;18.60;73.60;;;;;;5070215;28;20494;-76
2021/04/18 15:15:46;;;;;;;14.48;8.52;;;18.30;75.40;;;;;;5071503;28;20119;-76
2021/04/18 15:18:12;;;;;;;12.05;7.97;;;17.60;77.90;;;;;;5071452;28;20067;-75
2021/04/18 15:20:39;;;;;;;13.02;8.68;;;17.20;80.20;;;;;;5068912;28;20105;-75
2021/04/18 15:23:04;;;;;;;18.40;8.60;;;17.20;79.20;;;;;;5071311;28;20054;-75
2021/04/18 15:25:30;;;;;;;12.82;8.40;;;17.10;81.20;;;;;;5071713;28;20020;-75
2021/04/18 15:27:59;;;;;;;13.20;8.85;;;17.30;82.10;;;;;;5071082;28;20063;-74
2021/04/18 15:30:24;;;;;;;13.55;8.98;;;17.60;80.60;;;;;;5070492;28;20025;-75
2021/04/18 15:32:50;;;;;;;20.05;10.85;;;17.90;80.70;;;;;;5071703;28;20032;-75
2021/04/18 15:35:20;;;;;;;12.95;8.25;;;17.70;80.90;;;;;;5070112;28;20024;-74
2021/04/18 15:37:51;;;;;;;13.63;8.65;;;17.80;81.10;;;;;;5071093;28;20439;-75
2021/04/18 15:40:17;;;;;;;16.75;9.35;;;17.60;80.00;;;;;;5070416;28;20096;-75
2021/04/18 15:42:46;;;;;;;11.13;8.43;;;17.60;81.90;;;;;;5071317;28;20111;-74
2021/04/18 15:45:12;;;;;;;12.25;8.63;;;17.20;82.60;;;;;;5070138;28;20499;-75
2021/04/18 15:47:39;;;;;;;12.43;8.82;;;16.70;86.00;;;;;;5070925;28;20397;-75
2021/04/18 15:50:06;;;;;;;13.93;9.65;;;16.60;88.00;;;;;;5070345;28;20037;-75
2021/04/18 15:52:33;;;;;;;13.02;8.88;;;16.00;89.70;;;;;;5071919;28;20442;-75
2021/04/18 15:54:59;;;;;;;15.35;10.00;;;15.50;91.30;;;;;;5071267;28;20106;-75
2021/04/18 15:57:25;;;;;;;14.98;9.70;;;15.10;94.70;;;;;;5071432;28;20485;-75
2021/04/18 15:59:52;;;;;;;12.90;9.60;;;14.60;96.80;;;;;;5070310;28;20552;-73
2021/04/18 16:02:19;;;;;;;12.68;9.43;;;14.70;98.50;;;;;;5091471;28;20390;-75
2021/04/18 16:04:46;;;;;;;12.77;9.70;;;14.20;98.90;;;;;;5055744;28;20040;-75
2021/04/18 16:07:11;;;;;;;13.63;9.50;;;14.10;99.90;;;;;;5063860;28;20183;-74
2021/04/18 16:09:37;;;;;;;14.48;9.77;;;14.10;99.90;;;;;;5071282;28;20123;-73
2021/04/18 16:12:06;;;;;;;12.95;9.70;;;13.80;99.90;;;;;;5066380;28;20055;-75
2021/04/18 16:14:33;;;;;;;12.45;9.98;;;13.80;99.90;;;;;;5070682;28;20111;-75
2021/04/18 16:16:58;;;;;;;12.60;9.43;;;13.70;99.90;;;;;;5070369;28;20028;-75
2021/04/18 16:19:25;;;;;;;14.07;10.07;;;13.90;99.90;;;;;;5070319;28;20405;-75
2021/04/18 16:21:52;;;;;;;13.07;9.00;;;13.80;99.90;;;;;;5052780;28;20035;-74
2021/04/18 16:24:18;;;;;;;12.45;9.05;;;14.70;99.90;;;;;;5070865;28;20028;-75
2021/04/18 16:26:44;;;;;;;13.02;9.18;;;14.40;99.90;;;;;;5071114;28;20028;-75
2021/04/18 16:29:10;;;;;;;12.15;9.00;;;14.00;99.90;;;;;;5070686;28;20125;-75
2021/04/18 16:31:37;;;;;;;11.50;8.88;;;14.00;99.90;;;;;;5069954;28;20033;-75
2021/04/18 16:34:04;;;;;;;15.52;10.10;;;14.10;99.90;;;;;;5071070;28;20417;-75
2021/04/18 16:36:31;;;;;;;13.23;9.23;;;14.40;99.90;;;;;;5070165;28;20032;-75
2021/04/18 16:38:58;;;;;;;14.38;9.60;;;14.20;99.90;;;;;;5080533;28;20673;-77
2021/04/18 16:41:24;;;;;;;11.80;8.88;;;14.10;99.90;;;;;;5067945;28;20024;-74
2021/04/18 16:43:53;;;;;;;15.63;11.23;;;14.30;99.90;;;;;;5066845;28;20094;-76
2021/04/18 16:46:18;;;;;;;18.38;12.68;;;14.00;99.90;;;;;;5066972;28;20119;-76
2021/04/18 16:48:44;;;;;;;15.05;9.98;;;13.70;99.90;;;;;;5066206;28;20033;-74
2021/04/18 16:51:10;;;;;;;13.25;10.00;;;13.60;99.90;;;;;;5066437;28;20494;-76
2021/04/18 16:53:37;;;;;;;14.10;10.40;;;13.30;99.90;;;;;;5066425;28;20029;-73
2021/04/18 16:56:06;;;;;;;12.27;9.23;;;13.20;99.90;;;;;;5067155;28;20519;-76
2021/04/18 16:58:32;;;;;;;12.32;8.93;;;13.10;99.90;;;;;;5065551;28;20124;-76
2021/04/18 17:00:57;;;;;;;14.77;9.38;;;13.90;99.90;;;;;;5065599;28;20467;-76
2021/04/18 17:03:23;;;;;;;13.88;9.55;;;13.00;99.90;;;;;;5067178;28;20028;-76
2021/04/18 17:05:48;;;;;;;14.75;9.80;;;12.90;99.90;;;;;;5065130;28;20523;-76
2021/04/18 17:08:15;;;;;;;14.15;9.10;;;12.70;99.90;;;;;;5066746;28;20040;-74
2021/04/18 17:10:42;;;;;;;15.35;10.02;;;12.90;99.90;;;;;;5066792;28;20732;-75
2021/04/18 17:13:09;;;;;;;13.85;9.73;;;12.80;99.90;;;;;;5066816;28;20078;-76
2021/04/18 17:15:36;;;;;;;14.90;8.52;;;13.10;99.90;;;;;;5064722;28;20496;-74
2021/04/18 17:18:03;;;;;;;15.43;9.75;;;12.60;99.90;;;;;;5066846;28;20025;-74
2021/04/18 17:20:30;;;;;;;12.35;9.23;;;12.60;99.90;;;;;;5065793;28;20033;-75
2021/04/18 17:22:57;;;;;;;15.32;10.00;;;12.50;99.90;;;;;;5066216;28;20025;-76
2021/04/18 17:25:24;;;;;;;12.50;9.30;;;12.40;99.90;;;;;;5066044;28;20504;-76
2021/04/18 17:27:50;;;;;;;13.30;9.50;;;12.40;99.90;;;;;;5066368;28;20036;-75
2021/04/18 17:30:18;;;;;;;12.13;9.40;;;12.30;99.90;;;;;;5066457;28;20082;-75
2021/04/18 17:32:44;;;;;;;14.23;8.20;;;12.20;99.90;;;;;;5069008;28;20024;-75
2021/04/18 17:35:11;;;;;;;15.30;9.93;;;12.10;99.90;;;;;;5048478;28;20040;-75
2021/04/18 17:37:37;;;;;;;13.25;9.35;;;12.10;99.90;;;;;;5066956;28;20021;-76
2021/04/18 17:40:06;;;;;;;13.57;8.75;;;12.10;99.90;;;;;;5068245;28;20550;-76
2021/04/18 17:42:32;;;;;;;10.63;8.20;;;12.20;99.90;;;;;;5069214;28;20112;-75
2021/04/18 17:44:57;;;;;;;13.27;8.40;;;11.90;99.90;;;;;;5072327;28;20433;-75
2021/04/18 17:47:23;;;;;;;11.63;7.43;;;11.90;99.90;;;;;;5073379;28;20033;-76
2021/04/18 17:49:49;;;;;;;12.45;8.20;;;11.80;99.90;;;;;;5072886;28;20025;-76
2021/04/18 17:52:14;;;;;;;10.95;7.65;;;11.70;99.90;;;;;;5073999;28;20107;-76
2021/04/18 17:54:40;;;;;;;10.35;7.57;;;11.80;99.90;;;;;;5073607;28;20040;-75
2021/04/18 17:57:06;;;;;;;12.82;7.53;;;12.20;99.90;;;;;;5072527;28;20058;-74
2021/04/18 17:59:34;;;;;;;12.23;8.30;;;11.80;99.90;;;;;;5072260;28;20036;-74
2021/04/18 18:02:00;;;;;;;10.60;7.15;;;11.50;99.90;;;;;;5072048;28;20024;-76
2021/04/18 18:04:26;;;;;;;10.82;7.88;;;11.40;99.90;;;;;;5073641;28;20025;-76
2021/04/18 18:06:51;;;;;;;12.43;8.00;;;11.30;99.90;;;;;;5073832;28;20021;-75
2021/04/18 18:09:17;;;;;;;14.32;8.63;;;11.40;99.90;;;;;;5072183;28;20027;-76
2021/04/18 18:11:43;;;;;;;12.30;7.43;;;11.30;99.90;;;;;;5072821;28;20056;-76
2021/04/18 18:14:10;;;;;;;13.63;8.32;;;11.20;99.90;;;;;;5054976;28;20489;-76
2021/04/18 18:16:35;;;;;;;10.27;7.30;;;11.40;99.90;;;;;;5071191;28;20021;-76
2021/04/18 18:19:01;;;;;;;11.43;8.18;;;11.80;99.90;;;;;;5073351;28;20116;-77
2021/04/18 18:21:26;;;;;;;12.73;8.45;;;11.00;99.90;;;;;;5072260;28;20120;-76
2021/04/18 18:23:52;;;;;;;17.17;10.93;;;11.60;99.90;;;;;;5071679;28;20507;-75
2021/04/18 18:26:18;;;;;;;10.48;7.80;;;10.90;99.90;;;;;;5073034;28;20040;-75
2021/04/18 18:28:43;;;;;;;16.67;10.45;;;10.70;99.90;;;;;;5073166;28;20029;-75
2021/04/18 18:31:10;;;;;;;14.63;9.88;;;10.90;99.90;;;;;;5071988;28;20032;-76
2021/04/18 18:33:36;;;;;;;13.18;8.32;;;10.50;99.90;;;;;;5071471;28;20035;-75
2021/04/18 18:36:02;;;;;;;14.35;8.93;;;10.50;99.90;;;;;;5072770;28;20037;-75
2021/04/18 18:38:28;;;;;;;12.40;7.80;;;10.40;99.90;;;;;;5072742;28;20522;-74
2021/04/18 18:40:54;;;;;;;11.95;7.88;;;10.30;99.90;;;;;;5071901;28;20036;-76
2021/04/18 18:43:19;;;;;;;9.55;7.47;;;10.90;99.90;;;;;;5071293;28;20074;-76
2021/04/18 18:45:46;;;;;;;15.20;7.65;;;10.40;99.90;;;;;;5072246;28;20039;-75
2021/04/18 18:48:12;;;;;;;11.02;8.30;;;10.30;99.90;;;;;;5072630;28;20047;-75
2021/04/18 18:50:38;;;;;;;11.65;8.73;;;10.00;99.90;;;;;;5072664;28;20038;-76
2021/04/18 18:55:39;;;;;;;20.15;14.55;;;10.60;99.90;;;;;;5071586;28;20054;-76
